createdAt,value
2022-08-09T00:01:04.277Z,0
2022-08-09T00:02:20.572Z,0
2022-08-09T00:03:36.850Z,0
2022-08-09T00:04:53.146Z,0
2022-08-09T00:06:09.452Z,0
2022-08-09T00:07:25.742Z,0
2022-08-09T00:09:58.334Z,0
2022-08-09T00:11:14.620Z,0
2022-08-09T00:12:30.925Z,0
2022-08-09T00:13:47.216Z,0
2022-08-09T00:15:02.524Z,0
2022-08-09T00:17:35.104Z,0
2022-08-09T00:18:50.422Z,0
2022-08-09T00:20:05.731Z,0
2022-08-09T00:21:22.028Z,0
2022-08-09T00:22:38.315Z,0
2022-08-09T00:25:10.899Z,0
2022-08-09T00:26:27.198Z,0
2022-08-09T00:27:43.489Z,0
2022-08-09T00:28:59.788Z,0
2022-08-09T00:30:16.085Z,0
2022-08-09T00:31:32.381Z,0
2022-08-09T00:32:48.669Z,0
2022-08-09T00:34:04.962Z,0
2022-08-09T00:35:21.265Z,0
2022-08-09T00:36:36.575Z,0
2022-08-09T00:37:52.871Z,0
2022-08-09T00:39:09.147Z,0
2022-08-09T00:40:25.446Z,0
2022-08-09T00:41:41.735Z,0
2022-08-09T00:42:58.037Z,0
2022-08-09T00:44:14.325Z,0
2022-08-09T00:45:30.626Z,0
2022-08-09T00:46:45.952Z,0
2022-08-09T00:48:01.249Z,0
2022-08-09T00:49:17.535Z,0
2022-08-09T00:50:33.842Z,0
2022-08-09T00:51:50.124Z,0
2022-08-09T00:53:06.434Z,0
2022-08-09T00:54:22.728Z,0
2022-08-09T00:55:39.021Z,0
2022-08-09T00:56:55.317Z,0
2022-08-09T00:58:11.595Z,0
2022-08-09T00:59:27.894Z,0
2022-08-09T01:00:44.000Z,0
2022-08-09T01:02:00.495Z,0
2022-08-09T01:03:16.775Z,0
2022-08-09T01:04:32.087Z,0
2022-08-09T01:05:48.376Z,0
2022-08-09T01:07:04.684Z,0
2022-08-09T01:08:20.964Z,0
2022-08-09T01:09:37.263Z,0
2022-08-09T01:10:53.565Z,0
2022-08-09T01:12:09.846Z,0
2022-08-09T01:13:26.144Z,0
2022-08-09T01:14:42.437Z,0
2022-08-09T01:15:58.736Z,0
2022-08-09T01:17:15.017Z,0
2022-08-09T01:18:31.333Z,0
2022-08-09T01:19:47.626Z,0
2022-08-09T01:21:02.923Z,0
2022-08-09T01:22:19.228Z,0
2022-08-09T01:23:35.523Z,0
2022-08-09T01:24:51.803Z,0
2022-08-09T01:26:08.104Z,0
2022-08-09T01:27:24.390Z,0
2022-08-09T01:28:40.689Z,0
2022-08-09T01:29:56.988Z,0
2022-08-09T01:31:13.278Z,0
2022-08-09T01:32:29.580Z,0
2022-08-09T01:33:45.861Z,0
2022-08-09T01:35:02.164Z,0
2022-08-09T01:36:18.463Z,0
2022-08-09T01:37:33.758Z,0
2022-08-09T01:38:50.058Z,0
2022-08-09T01:40:06.355Z,0
2022-08-09T01:41:22.654Z,0
2022-08-09T01:42:38.942Z,0
2022-08-09T01:43:55.241Z,0
2022-08-09T01:45:11.534Z,0
2022-08-09T01:46:27.827Z,0
2022-08-09T01:47:44.115Z,0
2022-08-09T01:49:00.402Z,0
2022-08-09T01:51:32.995Z,0
2022-08-09T01:52:49.300Z,0
2022-08-09T01:54:04.591Z,0
2022-08-09T01:56:37.184Z,0
2022-08-09T01:57:53.488Z,0
2022-08-09T01:59:09.783Z,0
2022-08-09T02:00:26.069Z,0
2022-08-09T02:01:41.380Z,0
2022-08-09T02:02:57.671Z,0
2022-08-09T02:04:13.972Z,0
2022-08-09T02:05:30.261Z,0
2022-08-09T02:06:46.558Z,0
2022-08-09T02:08:02.862Z,0
2022-08-09T02:09:19.145Z,0
2022-08-09T02:10:35.445Z,0
2022-08-09T02:11:51.745Z,0
2022-08-09T02:13:08.029Z,0
2022-08-09T02:14:24.327Z,0
2022-08-09T02:15:40.629Z,0
2022-08-09T02:16:56.918Z,0
2022-08-09T02:18:12.223Z,0
2022-08-09T02:19:28.514Z,0
2022-08-09T02:20:44.822Z,0
2022-08-09T02:22:01.104Z,0
2022-08-09T02:23:17.397Z,0
2022-08-09T02:24:33.690Z,0
2022-08-09T02:25:49.983Z,0
2022-08-09T02:27:06.279Z,0
2022-08-09T02:28:22.580Z,0
2022-08-09T02:29:38.861Z,0
2022-08-09T02:30:55.159Z,0
2022-08-09T02:32:11.458Z,0
2022-08-09T02:33:27.750Z,0
2022-08-09T02:34:43.072Z,0
2022-08-09T02:35:59.355Z,0
2022-08-09T02:37:15.648Z,0
2022-08-09T02:38:31.946Z,0
2022-08-09T02:39:48.246Z,0
2022-08-09T02:42:20.829Z,0
2022-08-09T02:43:37.132Z,0
2022-08-09T02:44:53.414Z,0
2022-08-09T02:46:09.710Z,0
2022-08-09T02:47:26.001Z,0
2022-08-09T02:48:42.301Z,0
2022-08-09T02:49:58.594Z,0
2022-08-09T02:51:13.912Z,0
2022-08-09T02:52:30.202Z,0
2022-08-09T02:53:46.492Z,0
2022-08-09T02:55:02.782Z,0
2022-08-09T02:56:19.015Z,1
2022-08-09T02:57:35.321Z,0
2022-08-09T02:58:51.618Z,0
2022-08-09T03:00:07.901Z,0
2022-08-09T03:01:24.153Z,1
2022-08-09T03:02:40.400Z,1
2022-08-09T03:05:12.935Z,0
2022-08-09T03:06:29.224Z,0
2022-08-09T03:07:44.490Z,2
2022-08-09T03:09:00.730Z,1
2022-08-09T03:10:16.987Z,1
2022-08-09T03:11:33.222Z,2
2022-08-09T03:12:49.461Z,2
2022-08-09T03:14:05.701Z,3
2022-08-09T03:15:21.941Z,3
2022-08-09T03:16:38.198Z,2
2022-08-09T03:17:54.434Z,2
2022-08-09T03:19:10.681Z,3
2022-08-09T03:20:26.914Z,6
2022-08-09T03:21:43.143Z,5
2022-08-09T03:22:59.386Z,7
2022-08-09T03:24:14.655Z,7
2022-08-09T03:25:30.899Z,13
2022-08-09T03:26:47.139Z,19
2022-08-09T03:28:03.366Z,23
2022-08-09T03:29:19.604Z,24
2022-08-09T03:30:35.852Z,29
2022-08-09T03:31:52.091Z,35
2022-08-09T03:33:08.339Z,41
2022-08-09T03:34:24.579Z,53
2022-08-09T03:35:40.821Z,59
2022-08-09T03:36:57.046Z,74
2022-08-09T03:38:13.296Z,84
2022-08-09T03:39:29.535Z,93
2022-08-09T03:40:44.798Z,111
2022-08-09T03:42:01.029Z,126
2022-08-09T03:43:17.282Z,142
2022-08-09T03:44:33.506Z,163
2022-08-09T03:45:49.752Z,181
2022-08-09T03:47:05.996Z,202
2022-08-09T03:48:22.242Z,225
2022-08-09T03:49:38.475Z,244
2022-08-09T03:50:54.709Z,265
2022-08-09T03:52:10.961Z,292
2022-08-09T03:53:27.203Z,315
2022-08-09T03:54:43.427Z,335
2022-08-09T03:55:59.685Z,370
2022-08-09T03:58:31.167Z,401
2022-08-09T03:59:47.408Z,435
2022-08-09T04:01:03.651Z,483
2022-08-09T04:02:19.892Z,511
2022-08-09T04:03:36.127Z,536
2022-08-09T04:04:52.364Z,555
2022-08-09T04:06:08.622Z,576
2022-08-09T04:07:24.848Z,625
2022-08-09T04:08:41.092Z,670
2022-08-09T04:09:57.337Z,730
2022-08-09T04:11:13.568Z,785
2022-08-09T04:12:29.818Z,918
2022-08-09T04:13:45.079Z,991
2022-08-09T04:15:01.323Z,1004
2022-08-09T04:16:17.563Z,1117
2022-08-09T04:17:33.790Z,1219
2022-08-09T04:18:50.032Z,1269
2022-08-09T04:21:22.523Z,1391
2022-08-09T04:22:38.761Z,1287
2022-08-09T04:23:55.001Z,1156
2022-08-09T04:25:11.246Z,1344
2022-08-09T04:26:27.469Z,1007
2022-08-09T04:28:59.951Z,2198
2022-08-09T04:30:15.219Z,3933
2022-08-09T04:31:31.452Z,5790
2022-08-09T04:32:47.695Z,5751
2022-08-09T04:34:03.938Z,4092
2022-08-09T04:35:20.169Z,2406
2022-08-09T04:36:36.413Z,1938
2022-08-09T04:37:52.646Z,1947
2022-08-09T04:39:08.887Z,1971
2022-08-09T04:40:25.141Z,1996
2022-08-09T04:41:41.375Z,2005
2022-08-09T04:42:57.615Z,2018
2022-08-09T04:44:13.848Z,2040
2022-08-09T04:45:30.092Z,2074
2022-08-09T04:46:45.351Z,2107
2022-08-09T04:48:01.583Z,2140
2022-08-09T04:49:17.833Z,2173
2022-08-09T04:50:34.066Z,2207
2022-08-09T04:51:50.320Z,2236
2022-08-09T04:53:06.554Z,2266
2022-08-09T04:54:22.799Z,2294
2022-08-09T04:55:39.023Z,2320
2022-08-09T04:56:55.267Z,2345
2022-08-09T04:58:11.515Z,2371
2022-08-09T04:59:27.758Z,2396
2022-08-09T05:00:43.995Z,2420
2022-08-09T05:02:00.228Z,2445
2022-08-09T05:03:15.487Z,2473
2022-08-09T05:04:31.728Z,2496
2022-08-09T05:05:47.975Z,2522
2022-08-09T05:07:04.202Z,2552
2022-08-09T05:09:36.679Z,2622
2022-08-09T05:10:52.927Z,2656
2022-08-09T05:12:09.177Z,2699
2022-08-09T05:13:25.413Z,2741
2022-08-09T05:14:41.646Z,2790
2022-08-09T05:15:57.880Z,2835
2022-08-09T05:17:14.126Z,2884
2022-08-09T05:18:30.370Z,2937
2022-08-09T05:19:45.626Z,2985
2022-08-09T05:23:34.343Z,3070
2022-08-09T05:24:49.597Z,3097
2022-08-09T05:26:04.865Z,3134
2022-08-09T05:27:21.108Z,3173
2022-08-09T05:28:37.347Z,3224
2022-08-09T05:29:53.582Z,3279
2022-08-09T05:31:09.821Z,3353
2022-08-09T05:32:26.055Z,3440
2022-08-09T05:33:42.292Z,3551
2022-08-09T05:34:58.533Z,3676
2022-08-09T05:36:14.777Z,3825
2022-08-09T05:37:31.015Z,3896
2022-08-09T05:38:46.286Z,3953
2022-08-09T05:40:01.532Z,4080
2022-08-09T05:41:17.781Z,4383
2022-08-09T05:42:34.023Z,4490
2022-08-09T05:43:50.253Z,4470
2022-08-09T05:45:06.505Z,4551
2022-08-09T05:46:22.736Z,4686
2022-08-09T05:47:38.975Z,4859
2022-08-09T05:48:55.219Z,4908
2022-08-09T05:50:11.452Z,5102
2022-08-09T05:52:43.934Z,5523
2022-08-09T05:54:00.189Z,5539
2022-08-09T05:55:16.426Z,5642
2022-08-09T05:56:31.671Z,5601
2022-08-09T05:57:47.907Z,5500
2022-08-09T05:59:04.149Z,5376
2022-08-09T06:00:20.387Z,5070
2022-08-09T06:01:36.644Z,4823
2022-08-09T06:02:52.885Z,4742
2022-08-09T06:04:09.115Z,4652
2022-08-09T06:07:57.831Z,4441
2022-08-09T06:09:13.092Z,4746
2022-08-09T06:10:28.347Z,4950
2022-08-09T06:11:44.587Z,5096
2022-08-09T06:13:00.838Z,5013
2022-08-09T06:14:17.079Z,5152
2022-08-09T06:15:33.315Z,5251
2022-08-09T06:16:48.578Z,5124
2022-08-09T06:18:04.824Z,5047
2022-08-09T06:19:21.054Z,5146
2022-08-09T06:20:37.288Z,5348
2022-08-09T06:21:53.534Z,5535
2022-08-09T06:23:08.803Z,5763
2022-08-09T06:24:24.044Z,5700
2022-08-09T06:25:40.302Z,5934
2022-08-09T06:26:56.544Z,5738
2022-08-09T06:28:12.782Z,6124
2022-08-09T06:29:29.005Z,5987
2022-08-09T06:30:45.253Z,5916
2022-08-09T06:32:01.486Z,6125
2022-08-09T06:33:17.739Z,6005
2022-08-09T06:34:33.983Z,5839
2022-08-09T06:35:50.216Z,5912
2022-08-09T06:37:06.455Z,5804
2022-08-09T06:38:22.700Z,5727
2022-08-09T06:39:38.936Z,5719
2022-08-09T06:40:54.201Z,5831
2022-08-09T06:42:10.423Z,5767
2022-08-09T06:43:26.668Z,5593
2022-08-09T06:45:59.144Z,5546
2022-08-09T06:47:15.401Z,5524
2022-08-09T06:48:31.630Z,5653
2022-08-09T06:49:47.881Z,5683
2022-08-09T06:51:04.103Z,5660
2022-08-09T06:53:36.589Z,5406
2022-08-09T06:54:52.842Z,5178
2022-08-09T06:56:09.075Z,4998
2022-08-09T06:57:24.318Z,4774
2022-08-09T06:58:40.575Z,4637
2022-08-09T06:59:56.812Z,4637
2022-08-09T07:01:13.044Z,4567
2022-08-09T07:02:29.297Z,4558
2022-08-09T07:03:45.537Z,4535
2022-08-09T07:05:01.762Z,4417
2022-08-09T07:06:18.005Z,4339
2022-08-09T07:07:34.252Z,4321
2022-08-09T07:08:50.497Z,4233
2022-08-09T07:10:06.723Z,4167
2022-08-09T07:11:22.976Z,4140
2022-08-09T07:12:39.218Z,4116
2022-08-09T07:13:54.472Z,3995
2022-08-09T07:15:10.710Z,3939
2022-08-09T07:16:26.955Z,3931
2022-08-09T07:17:43.194Z,3914
2022-08-09T07:18:59.432Z,3974
2022-08-09T07:20:15.659Z,3925
2022-08-09T07:21:31.907Z,3965
2022-08-09T07:24:04.384Z,4060
2022-08-09T07:25:20.618Z,4005
2022-08-09T07:26:36.863Z,3911
2022-08-09T07:27:53.112Z,3873
2022-08-09T07:29:09.355Z,3866
2022-08-09T07:31:40.843Z,3787
2022-08-09T07:32:57.082Z,3753
2022-08-09T07:34:13.319Z,3894
2022-08-09T07:35:29.566Z,4069
2022-08-09T07:36:45.807Z,4084
2022-08-09T07:39:18.280Z,4074
2022-08-09T07:40:34.516Z,3993
2022-08-09T07:41:49.776Z,3900
2022-08-09T07:43:05.038Z,3805
2022-08-09T07:44:21.273Z,3698
2022-08-09T07:45:37.514Z,3533
2022-08-09T07:46:53.764Z,3451
2022-08-09T07:48:09.995Z,3471
2022-08-09T07:49:26.232Z,3432
2022-08-09T07:50:42.493Z,3451
2022-08-09T07:51:58.717Z,3486
2022-08-09T07:53:14.972Z,3509
2022-08-09T07:54:31.200Z,3500
2022-08-09T07:55:46.460Z,3496
2022-08-09T07:57:01.728Z,3486
2022-08-09T07:58:17.953Z,3420
2022-08-09T07:59:34.197Z,3376
2022-08-09T08:02:06.670Z,3328
2022-08-09T08:03:22.910Z,3314
2022-08-09T08:04:39.158Z,3301
2022-08-09T08:05:55.394Z,3284
2022-08-09T08:07:11.637Z,3264
2022-08-09T08:09:44.126Z,3236
2022-08-09T08:11:00.362Z,3227
2022-08-09T08:12:15.624Z,3216
2022-08-09T08:13:30.881Z,3202
2022-08-09T08:14:47.125Z,3195
2022-08-09T08:17:19.587Z,3178
2022-08-09T08:18:35.827Z,3168
2022-08-09T08:19:52.087Z,3163
2022-08-09T08:21:08.324Z,3161
2022-08-09T08:22:24.563Z,3155
2022-08-09T08:23:40.803Z,3152
2022-08-09T08:24:57.027Z,3140
2022-08-09T08:26:13.281Z,3132
2022-08-09T08:27:29.513Z,3128
2022-08-09T08:28:45.762Z,3124
2022-08-09T08:30:01.009Z,3120
2022-08-09T08:31:17.250Z,3113
2022-08-09T08:32:33.487Z,3109
2022-08-09T08:33:49.726Z,3104
2022-08-09T08:35:05.971Z,3098
2022-08-09T08:36:22.178Z,3094
2022-08-09T08:37:38.419Z,3093
2022-08-09T08:38:54.667Z,3088
2022-08-09T08:40:09.936Z,3085
2022-08-09T08:41:26.173Z,3080
2022-08-09T08:42:41.428Z,3083
2022-08-09T08:43:57.658Z,3084
2022-08-09T08:45:13.899Z,3081
2022-08-09T08:47:46.392Z,3083
2022-08-09T08:49:02.630Z,3084
2022-08-09T08:50:18.857Z,3085
2022-08-09T08:51:35.109Z,3083
2022-08-09T08:52:51.334Z,3081
2022-08-09T08:54:07.590Z,3078
2022-08-09T08:55:23.828Z,3080
2022-08-09T08:56:40.061Z,3075
2022-08-09T08:57:56.301Z,3080
2022-08-09T08:59:11.560Z,3086
2022-08-09T09:00:27.805Z,3085
2022-08-09T09:01:44.045Z,3082
2022-08-09T09:03:00.286Z,3083
2022-08-09T09:05:32.758Z,3080
2022-08-09T09:06:48.025Z,3080
2022-08-09T09:08:03.277Z,3076
2022-08-09T09:09:19.518Z,3073
2022-08-09T09:10:35.767Z,3073
2022-08-09T09:11:52.005Z,3075
2022-08-09T09:13:08.229Z,3076
2022-08-09T09:14:24.479Z,3081
2022-08-09T09:15:40.720Z,3083
2022-08-09T09:18:13.190Z,3090
2022-08-09T09:19:29.436Z,3092
2022-08-09T09:20:45.686Z,3093
2022-08-09T09:22:01.919Z,3095
2022-08-09T09:23:18.158Z,3089
2022-08-09T09:24:33.412Z,3086
2022-08-09T09:25:49.648Z,3085
2022-08-09T09:27:05.897Z,3089
2022-08-09T09:28:22.144Z,3098
2022-08-09T09:29:38.374Z,3106
2022-08-09T09:30:54.627Z,3116
2022-08-09T09:32:10.867Z,3120
2022-08-09T09:33:27.096Z,3126
2022-08-09T09:34:42.352Z,3126
2022-08-09T09:35:57.612Z,3128
2022-08-09T09:37:13.856Z,3129
2022-08-09T09:38:30.101Z,3133
2022-08-09T09:41:02.584Z,3138
2022-08-09T09:42:18.822Z,3136
2022-08-09T09:43:35.048Z,3136
2022-08-09T09:44:51.293Z,3137
2022-08-09T09:46:07.531Z,3137
2022-08-09T09:48:40.021Z,3137
2022-08-09T09:49:56.258Z,3136
2022-08-09T09:51:11.513Z,3132
2022-08-09T09:52:26.774Z,3135
2022-08-09T09:53:43.011Z,3140
2022-08-09T09:54:59.261Z,3137
2022-08-09T09:56:15.499Z,3141
2022-08-09T09:57:31.733Z,3153
2022-08-09T10:00:04.218Z,3174
2022-08-09T10:01:20.458Z,3189
2022-08-09T10:03:52.942Z,3214
2022-08-09T10:05:09.183Z,3229
2022-08-09T10:06:25.411Z,3277
2022-08-09T10:07:40.669Z,3321
2022-08-09T10:08:55.942Z,3299
2022-08-09T10:10:12.174Z,3259
2022-08-09T10:11:28.414Z,3246
2022-08-09T10:12:44.655Z,3279
2022-08-09T10:14:00.889Z,3381
2022-08-09T10:15:17.141Z,3459
2022-08-09T10:16:33.381Z,3403
2022-08-09T10:17:49.603Z,3328
2022-08-09T10:19:05.862Z,3287
2022-08-09T10:21:38.322Z,3294
2022-08-09T10:22:54.584Z,3348
2022-08-09T10:24:10.811Z,3440
2022-08-09T10:25:26.060Z,3485
2022-08-09T10:26:42.312Z,3510
2022-08-09T10:27:58.545Z,3502
2022-08-09T10:29:14.797Z,3442
2022-08-09T10:30:31.027Z,3394
2022-08-09T10:31:46.284Z,3372
2022-08-09T10:33:02.534Z,3360
2022-08-09T10:34:18.774Z,3344
2022-08-09T10:35:34.044Z,3315
2022-08-09T10:36:49.280Z,3278
2022-08-09T10:38:05.521Z,3177
2022-08-09T10:39:21.763Z,3201
2022-08-09T10:40:38.001Z,3384
2022-08-09T10:41:54.241Z,3504
2022-08-09T10:43:10.483Z,3646
2022-08-09T10:44:26.729Z,3590
2022-08-09T10:45:42.969Z,3451
2022-08-09T10:46:59.202Z,3532
2022-08-09T10:48:15.460Z,3755
2022-08-09T10:49:30.721Z,4019
2022-08-09T10:50:45.962Z,4155
2022-08-09T10:52:02.199Z,4234
2022-08-09T10:53:18.451Z,4404
2022-08-09T10:54:34.685Z,4567
2022-08-09T10:55:50.934Z,4716
2022-08-09T10:57:07.160Z,4831
2022-08-09T10:59:39.650Z,5011
2022-08-09T11:00:55.896Z,5137
2022-08-09T11:02:12.128Z,5221
2022-08-09T11:03:28.372Z,5105
2022-08-09T11:04:44.608Z,4842
2022-08-09T11:06:00.854Z,4643
2022-08-09T11:07:16.101Z,4610
2022-08-09T11:08:32.344Z,4726
2022-08-09T11:09:48.578Z,4830
2022-08-09T11:11:04.836Z,4834
2022-08-09T11:12:21.064Z,5181
2022-08-09T11:13:37.302Z,5750
2022-08-09T11:14:53.552Z,5663
2022-08-09T11:16:09.797Z,6038
2022-08-09T11:17:26.023Z,5683
2022-08-09T11:18:42.265Z,5303
2022-08-09T11:19:58.498Z,5161
2022-08-09T11:21:14.746Z,5094
2022-08-09T11:22:30.982Z,5093
2022-08-09T11:23:46.243Z,5111
2022-08-09T11:25:02.491Z,5142
2022-08-09T11:26:18.717Z,5150
2022-08-09T11:27:34.969Z,5141
2022-08-09T11:28:51.200Z,5184
2022-08-09T11:30:07.447Z,5249
2022-08-09T11:31:23.692Z,5323
2022-08-09T11:32:39.932Z,5380
2022-08-09T11:33:56.175Z,5373
2022-08-09T11:35:12.395Z,5377
2022-08-09T11:36:28.647Z,5463
2022-08-09T11:37:44.877Z,5395
2022-08-09T11:39:01.125Z,5575
2022-08-09T11:40:16.379Z,6033
2022-08-09T11:41:32.620Z,6215
2022-08-09T11:42:48.859Z,6185
2022-08-09T11:44:05.097Z,6263
2022-08-09T11:45:21.339Z,6148
2022-08-09T11:46:37.592Z,6217
2022-08-09T11:47:53.813Z,6431
2022-08-09T11:49:10.057Z,6563
2022-08-09T11:50:26.302Z,7073
2022-08-09T11:51:42.545Z,7228
2022-08-09T11:52:58.782Z,7506
2022-08-09T11:54:15.031Z,8075
2022-08-09T11:55:31.264Z,8744
2022-08-09T11:56:46.521Z,9017
2022-08-09T11:58:02.765Z,8931
2022-08-09T11:59:19.000Z,8955
2022-08-09T12:00:35.247Z,8829
2022-08-09T12:01:51.487Z,8319
2022-08-09T12:03:07.724Z,7844
2022-08-09T12:04:23.963Z,7832
2022-08-09T12:05:40.207Z,8017
2022-08-09T12:06:56.437Z,7457
2022-08-09T12:08:12.687Z,7575
2022-08-09T12:10:45.163Z,7648
2022-08-09T12:12:01.394Z,7815
2022-08-09T12:13:16.664Z,8300
2022-08-09T12:14:32.901Z,8749
2022-08-09T12:15:49.146Z,8639
2022-08-09T12:17:05.386Z,8519
2022-08-09T12:18:21.611Z,8531
2022-08-09T12:19:37.859Z,8452
2022-08-09T12:20:54.110Z,8501
2022-08-09T12:22:10.349Z,8675
2022-08-09T12:23:26.581Z,8706
2022-08-09T12:24:42.817Z,8840
2022-08-09T12:25:59.056Z,8656
2022-08-09T12:28:31.539Z,7760
2022-08-09T12:29:47.789Z,8053
2022-08-09T12:31:03.030Z,8056
2022-08-09T12:32:19.274Z,8131
2022-08-09T12:33:35.514Z,7937
2022-08-09T12:34:51.754Z,7958
2022-08-09T12:36:07.993Z,8223
2022-08-09T12:37:24.248Z,8000
2022-08-09T12:38:40.491Z,7889
2022-08-09T12:39:56.713Z,8116
2022-08-09T12:41:12.967Z,8366
2022-08-09T12:42:29.213Z,7839
2022-08-09T12:43:45.448Z,8340
2022-08-09T12:45:01.679Z,8198
2022-08-09T12:46:17.926Z,8463
2022-08-09T12:47:33.181Z,8567
2022-08-09T12:48:49.429Z,8619
2022-08-09T12:51:21.904Z,8745
2022-08-09T12:52:38.148Z,8923
2022-08-09T12:53:54.376Z,9044
2022-08-09T12:56:26.854Z,9296
2022-08-09T12:57:43.110Z,9340
2022-08-09T12:58:59.339Z,9482
2022-08-09T13:00:15.572Z,9592
2022-08-09T13:01:31.830Z,9892
2022-08-09T13:02:48.074Z,10047
2022-08-09T13:04:03.318Z,10027
2022-08-09T13:06:35.804Z,9684
2022-08-09T13:07:51.071Z,9856
2022-08-09T13:09:06.309Z,9915
2022-08-09T13:10:22.558Z,9578
2022-08-09T13:11:38.808Z,9487
2022-08-09T13:12:55.049Z,9433
2022-08-09T13:14:11.289Z,9372
2022-08-09T13:15:27.522Z,9337
2022-08-09T13:16:43.750Z,9163
2022-08-09T13:18:00.011Z,9109
2022-08-09T13:19:16.249Z,9000
2022-08-09T13:21:48.723Z,8769
2022-08-09T13:23:04.960Z,8573
2022-08-09T13:24:21.203Z,8585
2022-08-09T13:25:36.452Z,8524
2022-08-09T13:26:52.705Z,8340
2022-08-09T13:28:08.942Z,8261
2022-08-09T13:29:25.171Z,8150
2022-08-09T13:30:41.412Z,7943
2022-08-09T13:31:57.656Z,7807
2022-08-09T13:33:13.900Z,7721
2022-08-09T13:34:30.146Z,7593
2022-08-09T13:35:45.411Z,7365
2022-08-09T13:37:00.655Z,7288
2022-08-09T13:38:16.906Z,7329
2022-08-09T13:39:33.134Z,7376
2022-08-09T13:40:49.382Z,7448
2022-08-09T13:42:05.615Z,7637
2022-08-09T13:43:21.861Z,7844
2022-08-09T13:44:38.101Z,7951
2022-08-09T13:45:54.348Z,8069
2022-08-09T13:47:10.590Z,8176
2022-08-09T13:48:26.823Z,8273
2022-08-09T13:49:43.067Z,8490
2022-08-09T13:52:15.547Z,8555
2022-08-09T13:53:30.802Z,8554
2022-08-09T13:54:47.047Z,8750
2022-08-09T13:56:03.283Z,8961
2022-08-09T13:57:19.530Z,9035
2022-08-09T13:58:35.752Z,9084
2022-08-09T13:59:52.002Z,8969
2022-08-09T14:01:08.234Z,8867
2022-08-09T14:02:24.489Z,9139
2022-08-09T14:03:40.721Z,9297
2022-08-09T14:04:56.958Z,9435
2022-08-09T14:07:29.437Z,9638
2022-08-09T14:08:45.692Z,9534
2022-08-09T14:10:00.942Z,9447
2022-08-09T14:11:17.189Z,9531
2022-08-09T14:12:33.431Z,9773
2022-08-09T14:13:49.654Z,9830
2022-08-09T14:15:05.901Z,9834
2022-08-09T14:16:22.137Z,9825
2022-08-09T14:17:38.385Z,9686
2022-08-09T14:18:54.620Z,9565
2022-08-09T14:20:10.854Z,9563
2022-08-09T14:21:27.093Z,9302
2022-08-09T14:22:43.338Z,9019
2022-08-09T14:23:59.583Z,8876
2022-08-09T14:25:15.823Z,8606
2022-08-09T14:26:31.072Z,8470
2022-08-09T14:27:47.318Z,8687
2022-08-09T14:29:03.562Z,8717
2022-08-09T14:30:19.812Z,8700
2022-08-09T14:31:36.050Z,8395
2022-08-09T14:32:52.290Z,7924
2022-08-09T14:34:08.523Z,7472
2022-08-09T14:35:24.771Z,7151
2022-08-09T14:36:41.011Z,6772
2022-08-09T14:37:57.240Z,6424
2022-08-09T14:39:13.487Z,6254
2022-08-09T14:40:29.716Z,6016
2022-08-09T14:41:45.959Z,5884
2022-08-09T14:43:01.215Z,5799
2022-08-09T14:44:17.472Z,5564
2022-08-09T14:45:33.699Z,5368
2022-08-09T14:46:48.975Z,5304
2022-08-09T14:48:05.207Z,5312
2022-08-09T14:50:37.692Z,5517
2022-08-09T14:53:10.172Z,5561
2022-08-09T14:54:26.401Z,5527
2022-08-09T14:55:42.637Z,5405
2022-08-09T14:56:58.885Z,5337
2022-08-09T14:58:15.119Z,5406
2022-08-09T14:59:31.360Z,5409
2022-08-09T15:00:47.598Z,5355
2022-08-09T15:02:03.844Z,5399
2022-08-09T15:03:19.110Z,5499
2022-08-09T15:04:35.356Z,5575
2022-08-09T15:05:51.596Z,5650
2022-08-09T15:07:07.815Z,5731
2022-08-09T15:08:24.069Z,5784
2022-08-09T15:09:40.297Z,5804
2022-08-09T15:10:56.549Z,5843
2022-08-09T15:12:12.795Z,5889
2022-08-09T15:13:29.033Z,5940
2022-08-09T15:14:45.266Z,6030
2022-08-09T15:16:01.514Z,6116
2022-08-09T15:17:17.758Z,6082
2022-08-09T15:18:33.980Z,5957
2022-08-09T15:19:49.255Z,5789
2022-08-09T15:21:05.490Z,5668
2022-08-09T15:22:21.722Z,5634
2022-08-09T15:23:37.960Z,5509
2022-08-09T15:24:54.206Z,5431
2022-08-09T15:26:10.448Z,5322
2022-08-09T15:27:26.682Z,5337
2022-08-09T15:28:42.920Z,5577
2022-08-09T15:29:59.176Z,5366
2022-08-09T15:31:15.407Z,5453
2022-08-09T15:32:31.654Z,5416
2022-08-09T15:33:47.890Z,5567
2022-08-09T15:35:04.122Z,5398
2022-08-09T15:36:19.394Z,5281
2022-08-09T15:37:35.621Z,5308
2022-08-09T15:38:51.871Z,5334
2022-08-09T15:40:08.099Z,5378
2022-08-09T15:41:24.341Z,5480
2022-08-09T15:42:40.588Z,5655
2022-08-09T15:43:56.833Z,6085
2022-08-09T15:45:13.076Z,6238
2022-08-09T15:46:29.310Z,6267
2022-08-09T15:47:45.553Z,6338
2022-08-09T15:49:01.790Z,6564
2022-08-09T15:50:18.026Z,6686
2022-08-09T15:51:34.271Z,6695
2022-08-09T15:52:49.516Z,6719
2022-08-09T15:54:05.768Z,6712
2022-08-09T15:55:22.007Z,6576
2022-08-09T15:56:38.248Z,6440
2022-08-09T15:57:54.485Z,6250
2022-08-09T15:59:10.728Z,6076
2022-08-09T16:00:26.967Z,5994
2022-08-09T16:01:43.210Z,5834
2022-08-09T16:02:59.446Z,5976
2022-08-09T16:04:15.686Z,5890
2022-08-09T16:05:31.931Z,5732
2022-08-09T16:06:48.167Z,5555
2022-08-09T16:08:04.402Z,5486
2022-08-09T16:09:19.671Z,5484
2022-08-09T16:10:35.905Z,4898
2022-08-09T16:11:52.144Z,5036
2022-08-09T16:13:08.380Z,6837
2022-08-09T16:14:24.626Z,7944
2022-08-09T16:15:40.863Z,4988
2022-08-09T16:16:57.108Z,6484
2022-08-09T16:18:13.344Z,10100
2022-08-09T16:19:29.577Z,10967
2022-08-09T16:20:45.827Z,8896
2022-08-09T16:22:02.057Z,7358
2022-08-09T16:24:34.551Z,5147
2022-08-09T16:25:49.792Z,8706
2022-08-09T16:27:06.045Z,6856
2022-08-09T16:28:22.277Z,8427
2022-08-09T16:29:38.526Z,8198
2022-08-09T16:32:11.009Z,8454
2022-08-09T16:34:43.478Z,10271
2022-08-09T16:35:58.744Z,8358
2022-08-09T16:37:13.994Z,9033
2022-08-09T16:38:30.239Z,13606
2022-08-09T16:39:46.472Z,8706
2022-08-09T16:41:02.727Z,5572
2022-08-09T16:42:18.973Z,9328
2022-08-09T16:43:35.214Z,9063
2022-08-09T16:44:51.449Z,11036
2022-08-09T16:46:07.685Z,9756
2022-08-09T16:47:23.926Z,8109
2022-08-09T16:48:40.167Z,6377
2022-08-09T16:49:55.435Z,6010
2022-08-09T16:51:10.676Z,7325
2022-08-09T16:52:26.929Z,5639
2022-08-09T16:53:43.156Z,8367
2022-08-09T16:54:59.400Z,9484
2022-08-09T16:56:15.637Z,7970
2022-08-09T16:57:31.893Z,7198
2022-08-09T16:58:48.130Z,8657
2022-08-09T17:00:04.362Z,9393
2022-08-09T17:01:20.609Z,7311
2022-08-09T17:02:36.845Z,6715
2022-08-09T17:03:53.080Z,5275
2022-08-09T17:05:09.326Z,4402
2022-08-09T17:06:25.564Z,3749
2022-08-09T17:07:40.829Z,5100
2022-08-09T17:08:57.057Z,3861
2022-08-09T17:10:13.310Z,3412
2022-08-09T17:11:29.545Z,3222
2022-08-09T17:12:45.785Z,2966
2022-08-09T17:14:02.035Z,2436
2022-08-09T17:15:18.277Z,3240
2022-08-09T17:16:34.509Z,4367
2022-08-09T17:17:50.744Z,4093
2022-08-09T17:19:06.993Z,3472
2022-08-09T17:20:23.234Z,3287
2022-08-09T17:21:39.464Z,3254
2022-08-09T17:22:55.705Z,3376
2022-08-09T17:24:10.975Z,3159
2022-08-09T17:25:27.210Z,3802
2022-08-09T17:26:43.440Z,3802
2022-08-09T17:27:59.689Z,3678
2022-08-09T17:29:15.929Z,3612
2022-08-09T17:30:32.171Z,3505
2022-08-09T17:31:48.409Z,3410
2022-08-09T17:33:04.648Z,3513
2022-08-09T17:34:20.888Z,3477
2022-08-09T17:35:37.129Z,3441
2022-08-09T17:36:53.376Z,3454
2022-08-09T17:38:09.600Z,3464
2022-08-09T17:40:42.083Z,3427
2022-08-09T17:41:57.342Z,3360
2022-08-09T17:43:13.584Z,3272
2022-08-09T17:44:29.825Z,3198
2022-08-09T17:45:46.068Z,3136
2022-08-09T17:47:02.295Z,3058
2022-08-09T17:48:18.544Z,2986
2022-08-09T17:49:34.780Z,2893
2022-08-09T17:50:51.028Z,2804
2022-08-09T17:52:07.267Z,2730
2022-08-09T17:53:23.508Z,2660
2022-08-09T17:54:39.746Z,2600
2022-08-09T17:55:55.986Z,2527
2022-08-09T17:57:12.235Z,2447
2022-08-09T17:58:27.472Z,2371
2022-08-09T17:59:43.717Z,2289
2022-08-09T18:00:59.955Z,2213
2022-08-09T18:02:16.200Z,2111
2022-08-09T18:03:32.436Z,2036
2022-08-09T18:04:48.683Z,1963
2022-08-09T18:06:04.923Z,1894
2022-08-09T18:07:21.166Z,1834
2022-08-09T18:08:37.416Z,1768
2022-08-09T18:09:53.649Z,1687
2022-08-09T18:11:09.895Z,1601
2022-08-09T18:12:26.127Z,1526
2022-08-09T18:13:42.374Z,1444
2022-08-09T18:14:57.632Z,1374